Impacts METAR Board
IDs:

KIAH - Houston/Bush Intl, TX, US

Updated at: 2200 UTC 14 Aug 2018
Potential Impact None Slight Moderate High
Time 14/10Z 14/11Z 14/12Z 14/13Z 14/14Z 14/15Z 14/16Z 14/17Z 14/18Z 14/19Z 14/20Z 14/21Z 14/22Z
Temp75 75 75 80 83 86 88 91 93 94 95 91 92
Dewpt74 75 75 77 78 78 74 74 73 73 72 75 76
Altim29.98 29.98 29.99 30.00 30.01 30.01 30.02 30.02 30.00 29.99 29.97 29.96 29.95
VIS9 8 5 7 7 7 10 10 10 10 10 10 10
CIG-- -- -- 250 250 250 250 250 -- -- -- -- 250
CoverFEWSCTSCTBKNBKNBKNBKNBKNSCTSCTSCTSCTBKN
FltCatVFRVFRMVFRVFRVFRVFRVFRVFRVFRVFRVFRVFRVFR
WX----BR--------------------
WDir180170180170170160180190160170160120130
WSpd3 4 3 3 4 10 8 10 12 9 13 13 13
WGst-- -- -- -- -- -- 16 -- -- 15 18 -- --
Raw hourly METARs
KIAH 140953Z 18003KT 9SM FEW020 FEW250 24/23 A2998 RMK AO2 SLP152 T02390233
KIAH 141053Z 17004KT 8SM SCT024 SCT250 24/24 A2998 RMK AO2 SLP151 T02390239
KIAH 141153Z 18003KT 5SM BR FEW023 SCT250 24/24 A2999 RMK AO2 SLP155 T02390239 10267 20233 53006
KIAH 141253Z 17003KT 7SM FEW023 BKN250 27/25 A3000 RMK AO2 SLP158 T02670250
KIAH 141353Z 17004KT 7SM FEW023 BKN250 28/26 A3001 RMK AO2 SLP160 T02830256
KIAH 141453Z 16010KT 7SM SCT024 BKN250 30/26 A3001 RMK AO2 SLP159 T03000256 50004
KIAH 141553Z 18008G16KT 10SM SCT030 BKN250 31/23 A3002 RMK AO2 SLP164 T03110233
KIAH 141653Z 19010KT 10SM SCT035 BKN250 33/23 A3002 RMK AO2 SLP163 T03280233
KIAH 141753Z 16012KT 10SM SCT040 SCT250 34/23 A3000 RMK AO2 SLP158 T03390228 10339 20233 58001
KIAH 141853Z 17009G15KT 10SM SCT045 SCT250 34/23 A2999 RMK AO2 SLP154 T03440228
KIAH 141953Z 16013G18KT 10SM SCT050 SCT250 35/22 A2997 RMK AO2 SLP148 T03500222
KIAH 142053Z 12013KT 10SM SCT055 SCT250 33/24 A2996 RMK AO2 SLP143 T03280239 57015
KIAH 142153Z 13013KT 10SM SCT050 SCT080 BKN250 33/24 A2995 RMK AO2 SLP140 T03330244



Page loaded:  22:04 UTC  |   03:04 PM Pacific  |   04:04 PM Mountain  |   05:04 PM Central  |   06:04 PM Eastern

 

ADVISORIES

FORECASTS

FORECASTS

OBSERVATIONS

USER TOOLS

ABOUT US